Cloridorme, Canada
Current Conditions -  °F | °C
As of 7:00 AM on Thursday 23 Oct 2014 (Local Time) from CYGP Reporting Station
Scattered Clouds Scattered Clouds  
Wind Chill: 27°   Ceiling: Unl
Heat Index: 27°   Visibility: 15mi
Dew Point: 27°   Wind: 3mph
Humidity: 100%   Direction: 230°SW
Pressure: 30.38"   Gusts: NA
Location:  49.17°N, 64.92°W
Report Text: CYGP 231100Z 23003KT 220V300 15SM FEW016 SCT120 M03/M03 A3038 RMK SC1AC2 FROIN SLP289
Loading
Personal Weather Stations






























Interactive Weather Map
Tropical Storm Tracking
New forecast layout! Learn more

10-Day Weather Forecast

Advertisements
Track Severe Weather on mobile